sensor_id;sensor_type;location;lat;lon;timestamp;pressure;altitude;pressure_sealevel;temperature;humidity
27712;BME280;2377;51.734;8.950;2023-01-30T00:00:07;97810.50;;;2.08;100.00
27712;BME280;2377;51.734;8.950;2023-01-30T00:02:34;97823.09;;;2.08;100.00
27712;BME280;2377;51.734;8.950;2023-01-30T00:05:02;97808.75;;;2.08;100.00
27712;BME280;2377;51.734;8.950;2023-01-30T00:07:30;97815.22;;;2.11;100.00
27712;BME280;2377;51.734;8.950;2023-01-30T00:09:57;97797.25;;;2.14;100.00
27712;BME280;2377;51.734;8.950;2023-01-30T00:12:24;97780.41;;;2.15;100.00
27712;BME280;2377;51.734;8.950;2023-01-30T00:14:51;97787.78;;;2.16;100.00
27712;BME280;2377;51.734;8.950;2023-01-30T00:17:18;97770.13;;;2.16;100.00
27712;BME280;2377;51.734;8.950;2023-01-30T00:19:45;97755.97;;;2.15;100.00
27712;BME280;2377;51.734;8.950;2023-01-30T00:22:12;97734.53;;;2.19;100.00
27712;BME280;2377;51.734;8.950;2023-01-30T00:24:41;97748.41;;;2.15;100.00
27712;BME280;2377;51.734;8.950;2023-01-30T00:27:08;97748.09;;;2.18;100.00
27712;BME280;2377;51.734;8.950;2023-01-30T00:29:35;97769.03;;;2.19;100.00
27712;BME280;2377;51.734;8.950;2023-01-30T00:32:02;97775.19;;;2.24;100.00
27712;BME280;2377;51.734;8.950;2023-01-30T00:34:29;97780.72;;;2.20;100.00
27712;BME280;2377;51.734;8.950;2023-01-30T00:36:56;97793.16;;;2.21;100.00
27712;BME280;2377;51.734;8.950;2023-01-30T00:39:23;97778.66;;;2.15;100.00
27712;BME280;2377;51.734;8.950;2023-01-30T00:41:52;97776.13;;;2.15;100.00
27712;BME280;2377;51.734;8.950;2023-01-30T00:44:36;97770.16;;;2.24;100.00
27712;BME280;2377;51.734;8.950;2023-01-30T00:47:21;97771.88;;;2.24;100.00
27712;BME280;2377;51.734;8.950;2023-01-30T00:49:48;97747.78;;;2.21;100.00
27712;BME280;2377;51.734;8.950;2023-01-30T00:52:15;97740.53;;;2.26;100.00
27712;BME280;2377;51.734;8.950;2023-01-30T00:54:42;97743.34;;;2.23;100.00
27712;BME280;2377;51.734;8.950;2023-01-30T00:57:11;97741.94;;;2.29;100.00
27712;BME280;2377;51.734;8.950;2023-01-30T00:59:38;97743.34;;;2.31;100.00
27712;BME280;2377;51.734;8.950;2023-01-30T01:02:05;97734.66;;;2.34;100.00
27712;BME280;2377;51.734;8.950;2023-01-30T01:04:32;97740.53;;;2.26;100.00
27712;BME280;2377;51.734;8.950;2023-01-30T01:07:08;97725.38;;;2.26;100.00
27712;BME280;2377;51.734;8.950;2023-01-30T01:09:35;97722.06;;;2.34;100.00
27712;BME280;2377;51.734;8.950;2023-01-30T01:12:02;97710.56;;;2.31;100.00
27712;BME280;2377;51.734;8.950;2023-01-30T01:14:31;97707.84;;;2.41;100.00
27712;BME280;2377;51.734;8.950;2023-01-30T01:16:59;97706.72;;;2.44;100.00
27712;BME280;2377;51.734;8.950;2023-01-30T01:19:26;97712.13;;;2.41;100.00
27712;BME280;2377;51.734;8.950;2023-01-30T01:21:53;97713.38;;;2.45;100.00
27712;BME280;2377;51.734;8.950;2023-01-30T01:24:20;97718.72;;;2.42;100.00
27712;BME280;2377;51.734;8.950;2023-01-30T01:26:47;97701.41;;;2.39;100.00
27712;BME280;2377;51.734;8.950;2023-01-30T01:29:16;97681.50;;;2.44;100.00
27712;BME280;2377;51.734;8.950;2023-01-30T01:31:45;97678.06;;;2.45;100.00
27712;BME280;2377;51.734;8.950;2023-01-30T01:34:12;97681.66;;;2.50;100.00
27712;BME280;2377;51.734;8.950;2023-01-30T01:36:39;97665.06;;;2.56;100.00
27712;BME280;2377;51.734;8.950;2023-01-30T01:39:06;97654.53;;;2.52;100.00
27712;BME280;2377;51.734;8.950;2023-01-30T01:41:33;97641.16;;;2.44;100.00
27712;BME280;2377;51.734;8.950;2023-01-30T01:44:04;97625.53;;;2.48;100.00
27712;BME280;2377;51.734;8.950;2023-01-30T01:46:36;97616.28;;;2.41;100.00
27712;BME280;2377;51.734;8.950;2023-01-30T01:49:14;97602.84;;;2.48;100.00
27712;BME280;2377;51.734;8.950;2023-01-30T01:51:51;97608.50;;;2.50;100.00
27712;BME280;2377;51.734;8.950;2023-01-30T01:54:28;97617.81;;;2.50;100.00
27712;BME280;2377;51.734;8.950;2023-01-30T01:57:03;97596.38;;;2.46;100.00
27712;BME280;2377;51.734;8.950;2023-01-30T01:59:36;97595.41;;;2.47;100.00
27712;BME280;2377;51.734;8.950;2023-01-30T02:02:09;97598.75;;;2.47;100.00
27712;BME280;2377;51.734;8.950;2023-01-30T02:04:44;97588.16;;;2.52;100.00
27712;BME280;2377;51.734;8.950;2023-01-30T02:07:35;97577.63;;;2.48;100.00
27712;BME280;2377;51.734;8.950;2023-01-30T02:10:06;97592.88;;;2.55;100.00
27712;BME280;2377;51.734;8.950;2023-01-30T02:12:34;97588.09;;;2.60;100.00
27712;BME280;2377;51.734;8.950;2023-01-30T02:15:04;97570.78;;;2.57;100.00
27712;BME280;2377;51.734;8.950;2023-01-30T02:17:31;97566.41;;;2.51;100.00
27712;BME280;2377;51.734;8.950;2023-01-30T02:20:09;97548.94;;;2.49;100.00
27712;BME280;2377;51.734;8.950;2023-01-30T02:23:23;97548.44;;;2.54;100.00
27712;BME280;2377;51.734;8.950;2023-01-30T02:26:57;97538.16;;;2.56;100.00
27712;BME280;2377;51.734;8.950;2023-01-30T02:30:42;97550.63;;;2.57;100.00
27712;BME280;2377;51.734;8.950;2023-01-30T02:33:25;97535.28;;;2.59;100.00
27712;BME280;2377;51.734;8.950;2023-01-30T02:36:07;97528.03;;;2.64;100.00
27712;BME280;2377;51.734;8.950;2023-01-30T02:38:47;97540.97;;;2.61;100.00
27712;BME280;2377;51.734;8.950;2023-01-30T02:41:26;97530.09;;;2.60;100.00
27712;BME280;2377;51.734;8.950;2023-01-30T02:44:02;97521.06;;;2.66;100.00
27712;BME280;2377;51.734;8.950;2023-01-30T02:46:42;97512.38;;;2.68;100.00
27712;BME280;2377;51.734;8.950;2023-01-30T02:49:21;97519.00;;;2.69;100.00
27712;BME280;2377;51.734;8.950;2023-01-30T02:51:51;97515.50;;;2.70;100.00
27712;BME280;2377;51.734;8.950;2023-01-30T02:54:18;97505.88;;;2.74;100.00
27712;BME280;2377;51.734;8.950;2023-01-30T02:56:48;97499.53;;;2.78;100.00
27712;BME280;2377;51.734;8.950;2023-01-30T02:59:21;97500.81;;;2.74;100.00
27712;BME280;2377;51.734;8.950;2023-01-30T03:02:19;97500.34;;;2.70;100.00
27712;BME280;2377;51.734;8.950;2023-01-30T03:05:11;97485.78;;;2.81;100.00
27712;BME280;2377;51.734;8.950;2023-01-30T03:07:48;97495.63;;;2.75;100.00
27712;BME280;2377;51.734;8.950;2023-01-30T03:10:28;97485.78;;;2.81;100.00
27712;BME280;2377;51.734;8.950;2023-01-30T03:13:06;97487.03;;;2.85;100.00
27712;BME280;2377;51.734;8.950;2023-01-30T03:15:41;97484.31;;;2.86;100.00
27712;BME280;2377;51.734;8.950;2023-01-30T03:18:13;97469.53;;;2.83;100.00
27712;BME280;2377;51.734;8.950;2023-01-30T03:20:42;97459.59;;;2.82;100.00
27712;BME280;2377;51.734;8.950;2023-01-30T03:23:09;97445.00;;;2.92;100.00
27712;BME280;2377;51.734;8.950;2023-01-30T03:25:41;97441.25;;;2.88;100.00
27712;BME280;2377;51.734;8.950;2023-01-30T03:28:12;97439.25;;;2.98;100.00
27712;BME280;2377;51.734;8.950;2023-01-30T03:30:40;97446.03;;;2.97;100.00
27712;BME280;2377;51.734;8.950;2023-01-30T03:33:07;97454.91;;;2.93;100.00
27712;BME280;2377;51.734;8.950;2023-01-30T03:35:35;97451.88;;;2.98;100.00
27712;BME280;2377;51.734;8.950;2023-01-30T03:38:03;97445.00;;;2.92;100.00
27712;BME280;2377;51.734;8.950;2023-01-30T03:40:30;97452.22;;;2.95;100.00
27712;BME280;2377;51.734;8.950;2023-01-30T03:42:57;97456.59;;;3.01;100.00
27712;BME280;2377;51.734;8.950;2023-01-30T03:45:24;97452.84;;;2.97;100.00
27712;BME280;2377;51.734;8.950;2023-01-30T03:47:51;97440.31;;;3.04;100.00
27712;BME280;2377;51.734;8.950;2023-01-30T03:50:19;97438.91;;;3.01;100.00
27712;BME280;2377;51.734;8.950;2023-01-30T03:52:47;97431.94;;;3.03;100.00
27712;BME280;2377;51.734;8.950;2023-01-30T03:55:14;97421.75;;;3.11;100.00
27712;BME280;2377;51.734;8.950;2023-01-30T03:57:41;97428.56;;;3.11;100.00
27712;BME280;2377;51.734;8.950;2023-01-30T04:00:10;97438.22;;;3.07;100.00
27712;BME280;2377;51.734;8.950;2023-01-30T04:02:37;97422.53;;;3.12;100.00
27712;BME280;2377;51.734;8.950;2023-01-30T04:05:05;97420.19;;;3.10;100.00
27712;BME280;2377;51.734;8.950;2023-01-30T04:07:32;97434.66;;;3.16;100.00
27712;BME280;2377;51.734;8.950;2023-01-30T04:10:00;97414.91;;;3.20;100.00
27712;BME280;2377;51.734;8.950;2023-01-30T04:12:27;97418.44;;;3.26;100.00
27712;BME280;2377;51.734;8.950;2023-01-30T04:14:54;97410.25;;;3.24;100.00
27712;BME280;2377;51.734;8.950;2023-01-30T04:17:21;97417.59;;;3.18;100.00
27712;BME280;2377;51.734;8.950;2023-01-30T04:19:48;97408.72;;;3.23;100.00
27712;BME280;2377;51.734;8.950;2023-01-30T04:22:16;97407.66;;;3.32;100.00
27712;BME280;2377;51.734;8.950;2023-01-30T04:24:43;97403.31;;;3.26;100.00
27712;BME280;2377;51.734;8.950;2023-01-30T04:27:11;97400.78;;;3.26;100.00
27712;BME280;2377;51.734;8.950;2023-01-30T04:29:38;97400.25;;;3.30;100.00
27712;BME280;2377;51.734;8.950;2023-01-30T04:32:05;97396.22;;;3.36;100.00
27712;BME280;2377;51.734;8.950;2023-01-30T04:34:32;97391.38;;;3.34;100.00
27712;BME280;2377;51.734;8.950;2023-01-30T04:36:59;97398.75;;;3.36;100.00
27712;BME280;2377;51.734;8.950;2023-01-30T04:39:26;97392.16;;;3.35;100.00
27712;BME280;2377;51.734;8.950;2023-01-30T04:41:53;97387.19;;;3.42;100.00
27712;BME280;2377;51.734;8.950;2023-01-30T04:44:22;97360.69;;;3.37;100.00
27712;BME280;2377;51.734;8.950;2023-01-30T04:46:49;97386.81;;;3.45;100.00
27712;BME280;2377;51.734;8.950;2023-01-30T04:49:16;97402.75;;;3.45;100.00
27712;BME280;2377;51.734;8.950;2023-01-30T04:51:43;97387.59;;;3.45;100.00
27712;BME280;2377;51.734;8.950;2023-01-30T04:54:10;97384.22;;;3.38;100.00
27712;BME280;2377;51.734;8.950;2023-01-30T04:56:37;97386.03;;;3.44;100.00
27712;BME280;2377;51.734;8.950;2023-01-30T04:59:04;97367.03;;;3.48;100.00
27712;BME280;2377;51.734;8.950;2023-01-30T05:01:35;97362.56;;;3.50;100.00
27712;BME280;2377;51.734;8.950;2023-01-30T05:04:04;97368.59;;;3.49;100.00
27712;BME280;2377;51.734;8.950;2023-01-30T05:06:32;97365.63;;;3.46;100.00
27712;BME280;2377;51.734;8.950;2023-01-30T05:09:00;97371.66;;;3.45;100.00
27712;BME280;2377;51.734;8.950;2023-01-30T05:11:29;97376.88;;;3.43;100.00
27712;BME280;2377;51.734;8.950;2023-01-30T05:13:57;97384.97;;;3.53;100.00
27712;BME280;2377;51.734;8.950;2023-01-30T05:16:25;97368.16;;;3.46;100.00
27712;BME280;2377;51.734;8.950;2023-01-30T05:18:54;97372.34;;;3.53;100.00
27712;BME280;2377;51.734;8.950;2023-01-30T05:21:24;97376.78;;;3.51;100.00
27712;BME280;2377;51.734;8.950;2023-01-30T05:23:53;97363.38;;;3.51;100.00
27712;BME280;2377;51.734;8.950;2023-01-30T05:26:21;97366.31;;;3.54;100.00
27712;BME280;2377;51.734;8.950;2023-01-30T05:28:51;97362.94;;;3.47;100.00
27712;BME280;2377;51.734;8.950;2023-01-30T05:31:18;97359.88;;;3.52;100.00
27712;BME280;2377;51.734;8.950;2023-01-30T05:33:49;97365.19;;;3.57;100.00
27712;BME280;2377;51.734;8.950;2023-01-30T05:36:22;97357.53;;;3.50;100.00
27712;BME280;2377;51.734;8.950;2023-01-30T05:38:49;97341.06;;;3.54;100.00
27712;BME280;2377;51.734;8.950;2023-01-30T05:41:17;97352.75;;;3.55;100.00
27712;BME280;2377;51.734;8.950;2023-01-30T05:43:47;97355.50;;;3.60;100.00
27712;BME280;2377;51.734;8.950;2023-01-30T05:46:15;97350.47;;;3.60;100.00
27712;BME280;2377;51.734;8.950;2023-01-30T05:48:42;97347.31;;;3.58;100.00
27712;BME280;2377;51.734;8.950;2023-01-30T05:51:16;97352.75;;;3.55;100.00
27712;BME280;2377;51.734;8.950;2023-01-30T05:53:46;97344.25;;;3.63;100.00
27712;BME280;2377;51.734;8.950;2023-01-30T05:56:14;97355.28;;;3.55;100.00
27712;BME280;2377;51.734;8.950;2023-01-30T05:58:42;97353.81;;;3.46;100.00
27712;BME280;2377;51.734;8.950;2023-01-30T06:01:12;97354.97;;;3.65;100.00
27712;BME280;2377;51.734;8.950;2023-01-30T06:03:39;97352.78;;;3.62;100.00
27712;BME280;2377;51.734;8.950;2023-01-30T06:06:07;97346.00;;;3.63;100.00
27712;BME280;2377;51.734;8.950;2023-01-30T06:08:34;97362.72;;;3.64;100.00
27712;BME280;2377;51.734;8.950;2023-01-30T06:11:06;97358.66;;;3.63;100.00
27712;BME280;2377;51.734;8.950;2023-01-30T06:13:34;97347.41;;;3.65;100.00
27712;BME280;2377;51.734;8.950;2023-01-30T06:16:01;97342.75;;;3.69;100.00
27712;BME280;2377;51.734;8.950;2023-01-30T06:18:28;97350.25;;;3.62;100.00
27712;BME280;2377;51.734;8.950;2023-01-30T06:20:55;97366.03;;;3.64;100.00
27712;BME280;2377;51.734;8.950;2023-01-30T06:23:22;97358.34;;;3.72;100.00
27712;BME280;2377;51.734;8.950;2023-01-30T06:25:51;97347.03;;;3.68;100.00
27712;BME280;2377;51.734;8.950;2023-01-30T06:28:21;97353.38;;;3.79;100.00
27712;BME280;2377;51.734;8.950;2023-01-30T06:30:48;97358.88;;;3.68;100.00
27712;BME280;2377;51.734;8.950;2023-01-30T06:33:16;97356.44;;;3.74;100.00
27712;BME280;2377;51.734;8.950;2023-01-30T06:35:44;97354.31;;;3.78;100.00
27712;BME280;2377;51.734;8.950;2023-01-30T06:38:13;97362.66;;;3.78;100.00
27712;BME280;2377;51.734;8.950;2023-01-30T06:40:44;97376.72;;;3.81;100.00
27712;BME280;2377;51.734;8.950;2023-01-30T06:43:12;97383.38;;;3.89;100.00
27712;BME280;2377;51.734;8.950;2023-01-30T06:45:41;97388.44;;;3.89;100.00
27712;BME280;2377;51.734;8.950;2023-01-30T06:48:08;97382.66;;;3.95;100.00
27712;BME280;2377;51.734;8.950;2023-01-30T06:50:35;97367.09;;;3.91;100.00
27712;BME280;2377;51.734;8.950;2023-01-30T06:53:05;97373.94;;;3.97;100.00
27712;BME280;2377;51.734;8.950;2023-01-30T06:55:34;97389.75;;;3.85;100.00
27712;BME280;2377;51.734;8.950;2023-01-30T06:58:03;97384.59;;;3.93;100.00
27712;BME280;2377;51.734;8.950;2023-01-30T07:00:31;97383.56;;;3.87;100.00
27712;BME280;2377;51.734;8.950;2023-01-30T07:03:00;97393.31;;;3.90;100.00
27712;BME280;2377;51.734;8.950;2023-01-30T07:05:29;97397.19;;;3.86;100.00
27712;BME280;2377;51.734;8.950;2023-01-30T07:07:56;97392.13;;;3.86;100.00
27712;BME280;2377;51.734;8.950;2023-01-30T07:10:24;97398.03;;;3.93;100.00
27712;BME280;2377;51.734;8.950;2023-01-30T07:12:52;97409.75;;;4.01;100.00
27712;BME280;2377;51.734;8.950;2023-01-30T07:15:19;97378.94;;;3.91;100.00
27712;BME280;2377;51.734;8.950;2023-01-30T07:17:46;97394.28;;;3.89;100.00
27712;BME280;2377;51.734;8.950;2023-01-30T07:20:15;97362.72;;;3.85;100.00
27712;BME280;2377;51.734;8.950;2023-01-30T07:22:49;97376.81;;;3.94;100.00
27712;BME280;2377;51.734;8.950;2023-01-30T07:25:17;97376.44;;;3.97;100.00
27712;BME280;2377;51.734;8.950;2023-01-30T07:27:49;97370.09;;;4.01;100.00
27712;BME280;2377;51.734;8.950;2023-01-30T07:30:17;97372.97;;;3.98;100.00
27712;BME280;2377;51.734;8.950;2023-01-30T07:32:49;97372.59;;;4.01;100.00
27712;BME280;2377;51.734;8.950;2023-01-30T07:35:17;97375.34;;;4.00;100.00
27712;BME280;2377;51.734;8.950;2023-01-30T07:37:45;97370.63;;;3.97;100.00
27712;BME280;2377;51.734;8.950;2023-01-30T07:40:13;97371.91;;;3.86;100.00
27712;BME280;2377;51.734;8.950;2023-01-30T07:42:41;97372.91;;;3.92;100.00
27712;BME280;2377;51.734;8.950;2023-01-30T07:45:09;97374.84;;;3.90;100.00
27712;BME280;2377;51.734;8.950;2023-01-30T07:47:36;97373.69;;;3.92;100.00
27712;BME280;2377;51.734;8.950;2023-01-30T07:50:04;97372.06;;;3.85;100.00
27712;BME280;2377;51.734;8.950;2023-01-30T07:52:33;97375.97;;;3.87;100.00
27712;BME280;2377;51.734;8.950;2023-01-30T07:55:01;97389.22;;;3.89;100.00
27712;BME280;2377;51.734;8.950;2023-01-30T07:57:29;97387.06;;;3.86;100.00
27712;BME280;2377;51.734;8.950;2023-01-30T07:59:56;97391.97;;;3.73;100.00
27712;BME280;2377;51.734;8.950;2023-01-30T08:02:23;97390.22;;;3.73;100.00
27712;BME280;2377;51.734;8.950;2023-01-30T08:04:50;97396.50;;;3.77;100.00
27712;BME280;2377;51.734;8.950;2023-01-30T08:07:17;97396.06;;;3.74;100.00
27712;BME280;2377;51.734;8.950;2023-01-30T08:09:46;97408.97;;;3.79;100.00
27712;BME280;2377;51.734;8.950;2023-01-30T08:12:13;97421.94;;;3.76;100.00
27712;BME280;2377;51.734;8.950;2023-01-30T08:14:40;97414.56;;;3.74;100.00
27712;BME280;2377;51.734;8.950;2023-01-30T08:17:07;97422.75;;;3.76;100.00
27712;BME280;2377;51.734;8.950;2023-01-30T08:19:34;97422.91;;;3.75;100.00
27712;BME280;2377;51.734;8.950;2023-01-30T08:22:01;97407.75;;;3.75;100.00
27712;BME280;2377;51.734;8.950;2023-01-30T08:24:28;97403.72;;;3.80;100.00
27712;BME280;2377;51.734;8.950;2023-01-30T08:26:56;97410.69;;;3.78;100.00
27712;BME280;2377;51.734;8.950;2023-01-30T08:29:25;97413.16;;;3.72;100.00
27712;BME280;2377;51.734;8.950;2023-01-30T08:31:56;97413.59;;;3.75;100.00
27712;BME280;2377;51.734;8.950;2023-01-30T08:34:23;97416.00;;;3.84;100.00
27712;BME280;2377;51.734;8.950;2023-01-30T08:36:50;97421.41;;;3.80;100.00
27712;BME280;2377;51.734;8.950;2023-01-30T08:39:18;97420.53;;;3.88;100.00
27712;BME280;2377;51.734;8.950;2023-01-30T08:41:45;97417.09;;;3.96;100.00
27712;BME280;2377;51.734;8.950;2023-01-30T08:44:13;97417.28;;;3.94;100.00
27712;BME280;2377;51.734;8.950;2023-01-30T08:46:40;97412.53;;;4.06;100.00
27712;BME280;2377;51.734;8.950;2023-01-30T08:49:09;97425.59;;;4.10;100.00
27712;BME280;2377;51.734;8.950;2023-01-30T08:51:36;97429.28;;;4.07;100.00
27712;BME280;2377;51.734;8.950;2023-01-30T08:54:03;97426.44;;;4.17;100.00
27712;BME280;2377;51.734;8.950;2023-01-30T08:56:32;97415.28;;;4.11;100.00
27712;BME280;2377;51.734;8.950;2023-01-30T08:58:59;97433.06;;;4.18;100.00
27712;BME280;2377;51.734;8.950;2023-01-30T09:01:27;97445.41;;;4.28;100.00
27712;BME280;2377;51.734;8.950;2023-01-30T09:03:54;97446.78;;;4.30;100.00
27712;BME280;2377;51.734;8.950;2023-01-30T09:06:21;97451.91;;;4.37;100.00
27712;BME280;2377;51.734;8.950;2023-01-30T09:08:48;97439.88;;;4.39;100.00
27712;BME280;2377;51.734;8.950;2023-01-30T09:11:16;97436.78;;;4.43;100.00
27712;BME280;2377;51.734;8.950;2023-01-30T09:13:43;97432.28;;;4.39;100.00
27712;BME280;2377;51.734;8.950;2023-01-30T09:16:10;97429.75;;;4.39;100.00
27712;BME280;2377;51.734;8.950;2023-01-30T09:18:41;97421.16;;;4.33;100.00
27712;BME280;2377;51.734;8.950;2023-01-30T09:21:10;97442.94;;;4.34;100.00
27712;BME280;2377;51.734;8.950;2023-01-30T09:23:38;97439.09;;;4.38;100.00
27712;BME280;2377;51.734;8.950;2023-01-30T09:26:06;97441.00;;;4.36;100.00
27712;BME280;2377;51.734;8.950;2023-01-30T09:28:33;97430.88;;;4.36;100.00
27712;BME280;2377;51.734;8.950;2023-01-30T09:31:01;97434.56;;;4.34;100.00
27712;BME280;2377;51.734;8.950;2023-01-30T09:33:29;97432.81;;;4.34;100.00
27712;BME280;2377;51.734;8.950;2023-01-30T09:35:57;97445.53;;;4.41;100.00
27712;BME280;2377;51.734;8.950;2023-01-30T09:38:24;97443.31;;;4.31;100.00
27712;BME280;2377;51.734;8.950;2023-01-30T09:41:18;97443.72;;;4.35;100.00
27712;BME280;2377;51.734;8.950;2023-01-30T09:44:17;97433.97;;;4.32;100.00
27712;BME280;2377;51.734;8.950;2023-01-30T09:46:54;97432.88;;;4.41;100.00
27712;BME280;2377;51.734;8.950;2023-01-30T09:49:33;97443.16;;;4.39;100.00
27712;BME280;2377;51.734;8.950;2023-01-30T09:52:21;97436.13;;;4.35;100.00
27712;BME280;2377;51.734;8.950;2023-01-30T09:54:59;97437.78;;;4.21;100.00
27712;BME280;2377;51.734;8.950;2023-01-30T09:57:28;97437.88;;;4.34;100.00
27712;BME280;2377;51.734;8.950;2023-01-30T10:00:02;97423.47;;;4.35;100.00
27712;BME280;2377;51.734;8.950;2023-01-30T10:02:51;97447.63;;;4.37;100.00
27712;BME280;2377;51.734;8.950;2023-01-30T10:05:20;97450.72;;;4.33;99.63
27712;BME280;2377;51.734;8.950;2023-01-30T10:08:07;97456.13;;;4.51;99.98
27712;BME280;2377;51.734;8.950;2023-01-30T10:10:47;97451.47;;;4.55;99.39
27712;BME280;2377;51.734;8.950;2023-01-30T10:13:34;97458.31;;;4.61;98.74
27712;BME280;2377;51.734;8.950;2023-01-30T10:16:12;97452.03;;;4.50;98.51
27712;BME280;2377;51.734;8.950;2023-01-30T10:19:03;97459.38;;;4.45;97.79
27712;BME280;2377;51.734;8.950;2023-01-30T10:21:46;97447.75;;;4.51;97.62
27712;BME280;2377;51.734;8.950;2023-01-30T10:24:37;97449.03;;;4.40;97.57
27712;BME280;2377;51.734;8.950;2023-01-30T10:27:12;97449.06;;;4.47;97.62
27712;BME280;2377;51.734;8.950;2023-01-30T10:29:46;97440.53;;;4.48;97.68
27712;BME280;2377;51.734;8.950;2023-01-30T10:32:18;97461.97;;;4.52;97.37
27712;BME280;2377;51.734;8.950;2023-01-30T10:34:51;97479.16;;;4.56;97.22
27712;BME280;2377;51.734;8.950;2023-01-30T10:37:28;97455.94;;;4.53;96.81
27712;BME280;2377;51.734;8.950;2023-01-30T10:40:06;97453.63;;;4.58;96.61
27712;BME280;2377;51.734;8.950;2023-01-30T10:42:48;97450.16;;;4.59;95.77
27712;BME280;2377;51.734;8.950;2023-01-30T10:45:27;97445.44;;;4.56;95.71
27712;BME280;2377;51.734;8.950;2023-01-30T10:50:52;97444.28;;;4.58;95.43
27712;BME280;2377;51.734;8.950;2023-01-30T10:53:32;97437.50;;;4.59;94.26
27712;BME280;2377;51.734;8.950;2023-01-30T10:56:13;97437.75;;;4.64;94.77
27712;BME280;2377;51.734;8.950;2023-01-30T10:58:53;97446.59;;;4.53;93.57
27712;BME280;2377;51.734;8.950;2023-01-30T11:01:27;97434.16;;;4.52;94.00
27712;BME280;2377;51.734;8.950;2023-01-30T11:04:01;97440.38;;;4.56;93.82
27712;BME280;2377;51.734;8.950;2023-01-30T11:06:32;97436.16;;;4.63;93.91
27712;BME280;2377;51.734;8.950;2023-01-30T11:09:01;97449.78;;;4.62;93.22
27712;BME280;2377;51.734;8.950;2023-01-30T11:11:42;97457.56;;;4.60;94.05
27712;BME280;2377;51.734;8.950;2023-01-30T11:14:13;97445.97;;;4.73;93.21
27712;BME280;2377;51.734;8.950;2023-01-30T11:16:43;97452.53;;;4.67;93.10
27712;BME280;2377;51.734;8.950;2023-01-30T11:19:13;97432.75;;;4.77;93.24
27712;BME280;2377;51.734;8.950;2023-01-30T11:21:46;97423.75;;;4.68;93.31
27712;BME280;2377;51.734;8.950;2023-01-30T11:24:17;97432.19;;;4.75;93.14
27712;BME280;2377;51.734;8.950;2023-01-30T11:26:47;97429.53;;;4.62;93.36
27712;BME280;2377;51.734;8.950;2023-01-30T11:29:27;97437.41;;;4.74;93.45
27712;BME280;2377;51.734;8.950;2023-01-30T11:32:00;97425.72;;;4.73;93.61
27712;BME280;2377;51.734;8.950;2023-01-30T11:34:28;97436.63;;;4.73;93.59
27712;BME280;2377;51.734;8.950;2023-01-30T11:37:13;97429.81;;;4.74;94.49
27712;BME280;2377;51.734;8.950;2023-01-30T11:39:49;97426.47;;;4.66;94.62
27712;BME280;2377;51.734;8.950;2023-01-30T11:42:29;97427.28;;;4.74;94.43
27712;BME280;2377;51.734;8.950;2023-01-30T11:44:58;97424.44;;;4.83;93.56
27712;BME280;2377;51.734;8.950;2023-01-30T11:47:27;97419.78;;;4.87;94.24
27712;BME280;2377;51.734;8.950;2023-01-30T11:49:57;97440.03;;;4.87;93.86
27712;BME280;2377;51.734;8.950;2023-01-30T11:52:31;97432.13;;;4.97;94.20
27712;BME280;2377;51.734;8.950;2023-01-30T11:55:03;97435.25;;;4.99;94.05
27712;BME280;2377;51.734;8.950;2023-01-30T11:57:40;97420.94;;;4.84;94.11
27712;BME280;2377;51.734;8.950;2023-01-30T12:00:17;97435.59;;;4.96;93.96
27712;BME280;2377;51.734;8.950;2023-01-30T12:02:48;97425.81;;;4.86;93.93
27712;BME280;2377;51.734;8.950;2023-01-30T12:05:28;97432.44;;;4.87;93.02
27712;BME280;2377;51.734;8.950;2023-01-30T12:08:15;97436.72;;;4.86;92.41
27712;BME280;2377;51.734;8.950;2023-01-30T12:10:51;97418.00;;;4.81;92.68
27712;BME280;2377;51.734;8.950;2023-01-30T12:13:30;97419.97;;;4.85;92.06
27712;BME280;2377;51.734;8.950;2023-01-30T12:16:16;97427.00;;;4.90;91.14
27712;BME280;2377;51.734;8.950;2023-01-30T12:18:55;97407.44;;;4.77;91.67
27712;BME280;2377;51.734;8.950;2023-01-30T12:21:35;97409.63;;;4.80;91.63
27712;BME280;2377;51.734;8.950;2023-01-30T12:24:19;97425.03;;;4.85;91.50
27712;BME280;2377;51.734;8.950;2023-01-30T12:26:54;97419.97;;;4.85;91.30
27712;BME280;2377;51.734;8.950;2023-01-30T12:29:31;97423.91;;;4.95;90.86
27712;BME280;2377;51.734;8.950;2023-01-30T12:32:07;97415.88;;;4.84;91.49
27712;BME280;2377;51.734;8.950;2023-01-30T12:34:37;97416.50;;;4.93;91.47
27712;BME280;2377;51.734;8.950;2023-01-30T12:37:27;97402.06;;;4.87;91.67
27712;BME280;2377;51.734;8.950;2023-01-30T12:40:10;97419.91;;;4.79;91.17
27712;BME280;2377;51.734;8.950;2023-01-30T12:43:15;97415.63;;;4.73;91.59
27712;BME280;2377;51.734;8.950;2023-01-30T12:46:01;97412.09;;;4.74;91.87
27712;BME280;2377;51.734;8.950;2023-01-30T12:48:58;97406.88;;;4.75;91.31
27712;BME280;2377;51.734;8.950;2023-01-30T12:51:55;97426.91;;;4.77;90.48
27712;BME280;2377;51.734;8.950;2023-01-30T12:54:45;97423.53;;;4.98;90.73
27712;BME280;2377;51.734;8.950;2023-01-30T12:57:28;97413.28;;;5.06;90.30
27712;BME280;2377;51.734;8.950;2023-01-30T13:00:22;97425.94;;;5.06;90.05
27712;BME280;2377;51.734;8.950;2023-01-30T13:03:17;97417.75;;;5.04;89.66
27712;BME280;2377;51.734;8.950;2023-01-30T13:05:53;97425.53;;;5.02;89.08
27712;BME280;2377;51.734;8.950;2023-01-30T13:08:43;97416.88;;;4.90;88.51
27712;BME280;2377;51.734;8.950;2023-01-30T13:11:36;97414.16;;;4.92;88.06
27712;BME280;2377;51.734;8.950;2023-01-30T13:14:15;97422.50;;;4.85;88.03
27712;BME280;2377;51.734;8.950;2023-01-30T13:17:01;97409.84;;;4.85;88.25
27712;BME280;2377;51.734;8.950;2023-01-30T13:19:39;97414.16;;;4.92;89.32
27712;BME280;2377;51.734;8.950;2023-01-30T13:22:16;97430.91;;;4.93;89.53
27712;BME280;2377;51.734;8.950;2023-01-30T13:24:59;97438.47;;;4.86;90.76
27712;BME280;2377;51.734;8.950;2023-01-30T13:27:33;97456.84;;;4.95;90.33
27712;BME280;2377;51.734;8.950;2023-01-30T13:30:07;97462.63;;;4.88;90.79
27712;BME280;2377;51.734;8.950;2023-01-30T13:32:41;97489.75;;;4.95;91.71
27712;BME280;2377;51.734;8.950;2023-01-30T13:35:18;97528.47;;;4.67;91.94
27712;BME280;2377;51.734;8.950;2023-01-30T13:37:48;97511.44;;;4.33;92.09
27712;BME280;2377;51.734;8.950;2023-01-30T13:40:22;97477.03;;;4.17;91.90
27712;BME280;2377;51.734;8.950;2023-01-30T13:42:55;97503.56;;;4.06;92.90
27712;BME280;2377;51.734;8.950;2023-01-30T13:45:30;97502.94;;;4.04;94.21